createdAt,value
2023-02-23T00:01:29.826Z,101050.66
2023-02-23T00:03:58.793Z,101059.59
2023-02-23T00:06:27.820Z,101054.13
2023-02-23T00:08:54.693Z,101057.47
2023-02-23T00:11:22.135Z,101050.13
2023-02-23T00:13:50.638Z,101047.50
2023-02-23T00:16:22.024Z,101042.84
2023-02-23T00:18:51.428Z,101045.53
2023-02-23T00:21:40.765Z,101039.47
2023-02-23T00:24:09.804Z,101043.81
2023-02-23T00:26:39.210Z,101031.41
2023-02-23T00:29:18.360Z,101030.56
2023-02-23T00:31:49.448Z,101028.09
2023-02-23T00:34:21.299Z,101023.66
2023-02-23T00:36:54.602Z,101031.47
2023-02-23T00:39:29.363Z,101018.44
2023-02-23T00:41:56.814Z,101026.31
2023-02-23T00:44:24.458Z,101023.91
2023-02-23T00:46:52.476Z,101024.59
2023-02-23T00:49:20.780Z,101026.38
2023-02-23T00:51:47.408Z,101035.97
2023-02-23T00:54:15.180Z,101028.94
2023-02-23T00:56:41.876Z,101034.16
2023-02-23T00:59:08.665Z,101032.78
2023-02-23T01:01:37.566Z,101039.00
2023-02-23T01:04:04.933Z,101015.19
2023-02-23T01:06:32.523Z,101024.78
2023-02-23T01:08:59.331Z,101039.09
2023-02-23T01:11:28.039Z,101032.72
2023-02-23T01:13:56.969Z,101021.34
2023-02-23T01:16:28.194Z,101023.91
2023-02-23T01:18:56.413Z,101028.59
2023-02-23T01:21:25.920Z,101023.50
2023-02-23T01:23:53.280Z,101025.88
2023-02-23T01:26:25.977Z,101028.56
2023-02-23T01:28:56.696Z,101018.59
2023-02-23T01:31:25.389Z,101025.16
2023-02-23T01:34:00.472Z,101009.50
2023-02-23T01:36:32.201Z,101011.84
2023-02-23T01:39:00.335Z,101013.59
2023-02-23T01:41:28.726Z,101009.06
2023-02-23T01:44:25.911Z,101009.50
2023-02-23T01:46:53.444Z,101006.56
2023-02-23T01:49:22.935Z,100998.69
2023-02-23T01:52:02.735Z,101002.38
2023-02-23T01:54:36.423Z,101005.78
2023-02-23T01:57:03.898Z,101000.22
2023-02-23T01:59:38.536Z,100996.56
2023-02-23T02:02:05.510Z,100987.69
2023-02-23T02:04:43.818Z,100994.84
2023-02-23T02:07:16.506Z,100987.53
2023-02-23T02:10:07.517Z,100988.97
2023-02-23T02:12:34.212Z,100987.03
2023-02-23T02:15:02.149Z,100984.06
2023-02-23T02:17:37.924Z,100982.03
2023-02-23T02:20:33.347Z,100976.66
2023-02-23T02:23:37.767Z,100978.34
2023-02-23T02:26:29.647Z,100972.28
2023-02-23T02:29:11.757Z,100968.72
2023-02-23T02:31:44.482Z,100961.88
2023-02-23T02:34:19.283Z,100965.22
2023-02-23T02:37:27.419Z,100965.09
2023-02-23T02:40:16.515Z,100972.25
2023-02-23T02:42:59.545Z,100967.72
2023-02-23T02:45:57.160Z,100963.50
2023-02-23T02:48:45.076Z,100960.00
2023-02-23T02:51:28.626Z,100958.59
2023-02-23T02:54:14.001Z,100963.94
2023-02-23T02:56:41.964Z,100952.59
2023-02-23T02:59:38.841Z,100962.00
2023-02-23T03:02:24.970Z,100955.72
2023-02-23T03:05:10.302Z,100951.38
2023-02-23T03:08:01.157Z,100955.09
2023-02-23T03:11:05.613Z,100941.94
2023-02-23T03:14:20.165Z,100951.66
2023-02-23T03:17:42.683Z,100952.34
2023-02-23T03:21:03.463Z,100950.56
2023-02-23T03:24:14.298Z,100955.03
2023-02-23T03:27:05.213Z,100953.44
2023-02-23T03:29:59.320Z,100953.44
2023-02-23T03:32:46.921Z,100947.88
2023-02-23T03:35:38.327Z,100954.72
2023-02-23T03:38:23.594Z,100951.28
2023-02-23T03:41:10.087Z,100943.34
2023-02-23T03:43:58.557Z,100943.28
2023-02-23T03:46:45.567Z,100944.38
2023-02-23T03:49:32.321Z,100938.44
2023-02-23T03:52:23.952Z,100927.13
2023-02-23T03:55:16.514Z,100922.38
2023-02-23T03:58:05.016Z,100926.84
2023-02-23T04:00:53.885Z,100927.78
2023-02-23T04:03:39.727Z,100925.00
2023-02-23T04:06:27.639Z,100930.16
2023-02-23T04:09:15.490Z,100920.00
2023-02-23T04:12:10.840Z,100913.72
2023-02-23T04:14:45.996Z,100919.84
2023-02-23T04:17:12.809Z,100924.19
2023-02-23T04:19:39.479Z,100926.78
2023-02-23T04:22:09.197Z,100926.69
2023-02-23T04:24:35.862Z,100924.88
2023-02-23T04:27:03.062Z,100928.50
2023-02-23T04:29:29.704Z,100928.50
2023-02-23T04:31:56.463Z,100934.03
2023-02-23T04:34:23.062Z,100931.50
2023-02-23T04:36:51.445Z,100927.84
2023-02-23T04:39:18.172Z,100926.94
2023-02-23T04:41:44.854Z,100924.28
2023-02-23T04:44:11.683Z,100913.16
2023-02-23T04:46:38.557Z,100915.63
2023-02-23T04:49:05.237Z,100920.09
2023-02-23T04:51:36.708Z,100912.22
2023-02-23T04:54:04.370Z,100909.53
2023-02-23T04:56:31.442Z,100914.88
2023-02-23T04:58:58.251Z,100908.56
2023-02-23T05:01:24.911Z,100910.38
2023-02-23T05:03:52.108Z,100908.03
2023-02-23T05:06:19.224Z,100911.38
2023-02-23T05:08:48.898Z,100908.56
2023-02-23T05:11:15.587Z,100909.38
2023-02-23T05:13:42.317Z,100918.22
2023-02-23T05:16:09.030Z,100907.69
2023-02-23T05:18:35.665Z,100901.66
2023-02-23T05:21:05.517Z,100906.31
2023-02-23T05:23:32.303Z,100908.63
2023-02-23T05:26:04.388Z,100905.16
2023-02-23T05:28:31.013Z,100898.94
2023-02-23T05:30:57.838Z,100904.94
2023-02-23T05:33:24.597Z,100909.34
2023-02-23T05:35:51.462Z,100914.63
2023-02-23T05:38:18.148Z,100913.09
2023-02-23T05:40:44.750Z,100910.28
2023-02-23T05:43:11.364Z,100913.16
2023-02-23T05:45:42.365Z,100915.69
2023-02-23T05:48:10.500Z,100918.28
2023-02-23T05:50:37.370Z,100925.53
2023-02-23T05:53:04.348Z,100923.84
2023-02-23T05:55:31.137Z,100920.22
2023-02-23T05:57:57.728Z,100928.94
2023-02-23T06:00:24.570Z,100930.72
2023-02-23T06:02:53.166Z,100927.22
2023-02-23T06:05:19.842Z,100932.53
2023-02-23T06:07:47.036Z,100935.16
2023-02-23T06:10:14.560Z,100938.59
2023-02-23T06:12:41.273Z,100934.28
2023-02-23T06:15:08.766Z,100933.66
2023-02-23T06:17:36.169Z,100934.41
2023-02-23T06:20:04.874Z,100935.34
2023-02-23T06:22:31.492Z,100936.03
2023-02-23T06:24:58.139Z,100930.97
2023-02-23T06:27:24.843Z,100940.00
2023-02-23T06:29:51.449Z,100943.63
2023-02-23T06:32:18.197Z,100944.19
2023-02-23T06:34:47.986Z,100950.56
2023-02-23T06:37:14.899Z,100936.34
2023-02-23T06:39:41.519Z,100943.16
2023-02-23T06:42:08.112Z,100947.56
2023-02-23T06:44:35.791Z,100942.34
2023-02-23T06:47:05.796Z,100943.28
2023-02-23T06:49:32.529Z,100955.66
2023-02-23T06:51:59.266Z,100952.16
2023-02-23T06:54:31.952Z,100957.47
2023-02-23T06:56:58.563Z,100958.19
2023-02-23T06:59:25.184Z,100952.84
2023-02-23T07:01:52.235Z,100952.06
2023-02-23T07:04:19.059Z,100957.28
2023-02-23T07:06:45.746Z,100961.44
2023-02-23T07:09:12.410Z,100969.38
2023-02-23T07:11:41.247Z,100958.72
2023-02-23T07:14:12.875Z,100960.31
2023-02-23T07:16:42.119Z,100958.03
2023-02-23T07:19:08.840Z,100963.16
2023-02-23T07:21:35.520Z,100957.97
2023-02-23T07:24:04.891Z,100950.97
2023-02-23T07:26:35.323Z,100949.94
2023-02-23T07:29:02.482Z,100951.59
2023-02-23T07:31:29.337Z,100958.59
2023-02-23T07:33:56.150Z,100952.75
2023-02-23T07:36:23.583Z,100954.22
2023-02-23T07:38:50.766Z,100948.03
2023-02-23T07:41:17.981Z,100958.38
2023-02-23T07:43:44.803Z,100962.81
2023-02-23T07:46:11.786Z,100958.47
2023-02-23T07:48:39.121Z,100946.09
2023-02-23T07:51:10.501Z,100956.53
2023-02-23T07:53:38.102Z,100951.22
2023-02-23T07:56:05.044Z,100942.41
2023-02-23T07:58:32.016Z,100949.34
2023-02-23T08:00:58.983Z,100954.50
2023-02-23T08:03:26.300Z,100948.66
2023-02-23T08:05:53.098Z,100945.91
2023-02-23T08:08:19.844Z,100946.56
2023-02-23T08:10:50.004Z,100945.69
2023-02-23T08:13:17.312Z,100948.16
2023-02-23T08:15:47.586Z,100938.31
2023-02-23T08:18:14.822Z,100945.44
2023-02-23T08:20:41.501Z,100948.81
2023-02-23T08:23:09.265Z,100945.50
2023-02-23T08:25:36.223Z,100943.34
2023-02-23T08:28:04.765Z,100941.63
2023-02-23T08:30:31.970Z,100945.81
2023-02-23T08:32:58.758Z,100949.50
2023-02-23T08:35:26.302Z,100942.97
2023-02-23T08:37:53.033Z,100943.50
2023-02-23T08:40:20.896Z,100947.00
2023-02-23T08:42:49.265Z,100946.75
2023-02-23T08:45:16.177Z,100948.16
2023-02-23T08:47:42.799Z,100948.88
2023-02-23T08:50:11.083Z,100946.53
2023-02-23T08:52:38.713Z,100952.38
2023-02-23T08:55:05.966Z,100954.88
2023-02-23T08:57:34.283Z,100949.38
2023-02-23T09:00:01.120Z,100951.94
2023-02-23T09:02:29.244Z,100946.53
2023-02-23T09:04:56.046Z,100949.84
2023-02-23T09:07:23.474Z,100953.38
2023-02-23T09:09:57.484Z,100956.63
2023-02-23T09:12:24.090Z,100956.78
2023-02-23T09:14:51.993Z,100955.16
2023-02-23T09:17:18.728Z,100957.84
2023-02-23T09:19:45.452Z,100957.72
2023-02-23T09:22:12.372Z,100960.13
2023-02-23T09:24:39.037Z,100966.09
2023-02-23T09:27:07.500Z,100957.91
2023-02-23T09:29:34.511Z,100954.00
2023-02-23T09:32:01.343Z,100953.31
2023-02-23T09:34:30.833Z,100952.19
2023-02-23T09:36:57.663Z,100957.50
2023-02-23T09:39:37.265Z,100956.88
2023-02-23T09:42:16.290Z,100959.09
2023-02-23T09:44:55.081Z,100960.38
2023-02-23T09:47:31.033Z,100958.91
2023-02-23T09:50:00.049Z,100955.06
2023-02-23T09:52:38.301Z,100956.13
2023-02-23T09:55:05.846Z,100955.44
2023-02-23T09:57:39.119Z,100940.44
2023-02-23T10:00:18.264Z,100943.50
2023-02-23T10:03:12.130Z,100939.94
2023-02-23T10:05:44.097Z,100939.94
2023-02-23T10:08:20.686Z,100943.47
2023-02-23T10:10:59.410Z,100939.19
2023-02-23T10:14:01.685Z,100947.66
2023-02-23T10:16:46.129Z,100939.13
2023-02-23T10:19:29.442Z,100941.84
2023-02-23T10:21:58.377Z,100936.47
2023-02-23T10:24:37.041Z,100933.78
2023-02-23T10:27:09.852Z,100936.91
2023-02-23T10:29:41.502Z,100938.03
2023-02-23T10:32:18.163Z,100933.69
2023-02-23T10:34:46.311Z,100926.66
2023-02-23T10:37:13.430Z,100922.50
2023-02-23T10:39:40.960Z,100923.13
2023-02-23T10:42:14.952Z,100923.28
2023-02-23T10:44:44.900Z,100931.81
2023-02-23T10:47:15.509Z,100924.66
2023-02-23T10:49:49.985Z,100921.09
2023-02-23T10:52:42.252Z,100921.91
2023-02-23T10:55:26.339Z,100918.94
2023-02-23T10:58:17.173Z,100928.34
2023-02-23T11:01:10.259Z,100924.44
2023-02-23T11:03:43.279Z,100923.28
2023-02-23T11:06:31.274Z,100921.16
2023-02-23T11:08:57.929Z,100915.16
2023-02-23T11:11:28.900Z,100916.53
2023-02-23T11:13:58.691Z,100917.31
2023-02-23T11:16:29.008Z,100918.78
2023-02-23T11:18:57.587Z,100917.91
2023-02-23T11:21:29.781Z,100919.56
2023-02-23T11:23:58.568Z,100916.03
2023-02-23T11:26:31.527Z,100918.81
2023-02-23T11:29:01.723Z,100914.09
2023-02-23T11:31:32.708Z,100910.78
2023-02-23T11:33:59.707Z,100903.63
2023-02-23T11:36:35.188Z,100904.94
2023-02-23T11:39:15.129Z,100900.34
2023-02-23T11:41:41.943Z,100901.09
2023-02-23T11:44:21.231Z,100893.84
2023-02-23T11:46:48.352Z,100895.59
2023-02-23T11:49:20.893Z,100892.78
2023-02-23T11:51:49.951Z,100881.81
2023-02-23T11:54:22.591Z,100878.88
2023-02-23T11:56:55.211Z,100877.25
2023-02-23T11:59:29.243Z,100867.41
2023-02-23T12:02:03.453Z,100874.09
2023-02-23T12:04:33.768Z,100869.72
2023-02-23T12:07:38.913Z,100869.81
2023-02-23T12:10:12.527Z,100869.69
2023-02-23T12:13:12.306Z,100872.97
2023-02-23T12:15:50.859Z,100872.22
2023-02-23T12:18:49.020Z,100865.06
2023-02-23T12:21:31.333Z,100871.75
2023-02-23T12:24:10.421Z,100873.56
2023-02-23T12:26:45.365Z,100872.22
2023-02-23T12:29:23.569Z,100879.06
2023-02-23T12:31:58.007Z,100876.03
2023-02-23T12:34:32.609Z,100868.16
2023-02-23T12:37:18.650Z,100865.88
2023-02-23T12:39:49.483Z,100861.31
2023-02-23T12:42:38.229Z,100860.94
2023-02-23T12:45:06.703Z,100864.13
2023-02-23T12:47:49.524Z,100860.56
2023-02-23T12:50:39.529Z,100854.84
2023-02-23T12:53:18.336Z,100856.38
2023-02-23T12:55:55.256Z,100859.38
2023-02-23T12:58:29.584Z,100853.13
2023-02-23T13:01:12.875Z,100857.06
2023-02-23T13:03:43.676Z,100854.19
2023-02-23T13:06:30.544Z,100854.16
2023-02-23T13:09:22.398Z,100850.88
2023-02-23T13:12:11.099Z,100850.28
2023-02-23T13:14:59.394Z,100839.53
2023-02-23T13:17:37.332Z,100839.69
2023-02-23T13:20:12.594Z,100845.53
2023-02-23T13:23:10.882Z,100837.59
2023-02-23T13:25:45.400Z,100833.47
2023-02-23T13:28:22.087Z,100834.88
2023-02-23T13:30:48.900Z,100839.47
2023-02-23T13:33:27.523Z,100832.13
2023-02-23T13:35:59.057Z,100836.22
2023-02-23T13:38:37.458Z,100833.06
2023-02-23T13:41:13.409Z,100830.47
2023-02-23T13:43:50.754Z,100838.06
2023-02-23T13:46:21.852Z,100840.28
2023-02-23T13:49:02.354Z,100841.66
2023-02-23T13:51:42.778Z,100835.25
2023-02-23T13:54:12.515Z,100842.97
2023-02-23T13:56:46.213Z,100844.06
2023-02-23T13:59:19.354Z,100838.44
2023-02-23T14:01:49.494Z,100843.47
2023-02-23T14:04:24.860Z,100844.38
2023-02-23T14:06:56.757Z,100842.03
2023-02-23T14:09:28.950Z,100853.53
2023-02-23T14:12:26.938Z,100848.25
2023-02-23T14:14:53.747Z,100855.56
2023-02-23T14:17:20.324Z,100851.75
2023-02-23T14:20:07.756Z,100852.53
2023-02-23T14:22:34.668Z,100851.88
2023-02-23T14:25:35.249Z,100858.97
2023-02-23T14:28:06.804Z,100854.19
2023-02-23T14:30:51.308Z,100857.28
2023-02-23T14:33:35.809Z,100863.78
2023-02-23T14:36:03.469Z,100866.44
2023-02-23T14:38:47.154Z,100863.88
2023-02-23T14:41:14.627Z,100864.69
2023-02-23T14:43:42.963Z,100864.28
2023-02-23T14:46:21.771Z,100866.69
2023-02-23T14:49:12.490Z,100860.75
2023-02-23T14:51:45.267Z,100865.78
2023-02-23T14:54:24.752Z,100863.28
2023-02-23T14:56:54.275Z,100873.53
2023-02-23T14:59:23.231Z,100858.91
2023-02-23T15:01:51.110Z,100864.09
2023-02-23T15:04:27.375Z,100861.16
2023-02-23T15:06:57.753Z,100855.38
2023-02-23T15:09:39.968Z,100859.25
2023-02-23T15:12:31.094Z,100853.44
2023-02-23T15:15:02.852Z,100846.38
2023-02-23T15:17:32.334Z,100843.72
2023-02-23T15:20:16.230Z,100847.00
2023-02-23T15:22:46.877Z,100844.50
2023-02-23T15:25:20.006Z,100848.81
2023-02-23T15:27:48.261Z,100845.88
2023-02-23T15:30:23.306Z,100839.72
2023-02-23T15:33:00.389Z,100849.41
2023-02-23T15:35:28.073Z,100845.88
2023-02-23T15:38:05.755Z,100845.88
2023-02-23T15:40:41.315Z,100846.59
2023-02-23T15:43:10.432Z,100846.44
2023-02-23T15:45:50.470Z,100845.56
2023-02-23T15:51:33.071Z,100844.63
2023-02-23T15:54:02.283Z,100834.97
2023-02-23T15:56:30.703Z,100832.31
2023-02-23T15:59:04.252Z,100830.47
2023-02-23T16:01:33.432Z,100833.78
2023-02-23T16:04:08.366Z,100835.34
2023-02-23T16:06:40.082Z,100844.25
2023-02-23T16:09:22.312Z,100824.03
2023-02-23T16:12:03.230Z,100830.91
2023-02-23T16:14:36.208Z,100817.50
2023-02-23T16:17:11.216Z,100823.50
2023-02-23T16:19:42.037Z,100823.41
2023-02-23T16:22:19.819Z,100829.56
2023-02-23T16:24:50.234Z,100825.06
2023-02-23T16:27:17.538Z,100812.09
2023-02-23T16:29:46.678Z,100828.63
2023-02-23T16:32:18.901Z,100809.25
2023-02-23T16:34:56.193Z,100827.72
2023-02-23T16:37:28.460Z,100822.38
2023-02-23T16:39:57.363Z,100814.47
2023-02-23T16:42:32.372Z,100819.41
2023-02-23T16:45:01.250Z,100823.94
2023-02-23T16:47:37.018Z,100804.75
2023-02-23T16:50:21.643Z,100810.00
2023-02-23T16:52:54.366Z,100811.63
2023-02-23T16:55:27.708Z,100806.47
2023-02-23T16:57:58.795Z,100818.81
2023-02-23T17:00:31.809Z,100830.03
2023-02-23T17:03:01.175Z,100820.69
2023-02-23T17:05:30.886Z,100810.16
2023-02-23T17:07:59.467Z,100815.38
2023-02-23T17:10:35.653Z,100825.25
2023-02-23T17:13:06.570Z,100810.34
2023-02-23T17:15:40.123Z,100825.19
2023-02-23T17:18:11.540Z,100814.56
2023-02-23T17:20:39.030Z,100835.84
2023-02-23T17:23:07.813Z,100810.66
2023-02-23T17:25:37.629Z,100816.00
2023-02-23T17:30:47.977Z,100821.38
2023-02-23T17:33:21.319Z,100809.97
2023-02-23T17:35:51.436Z,100809.69
2023-02-23T17:38:21.864Z,100828.91
2023-02-23T17:40:49.245Z,100830.75
2023-02-23T17:43:16.405Z,100819.81
2023-02-23T17:45:44.911Z,100823.06
2023-02-23T17:48:11.690Z,100811.41
2023-02-23T17:50:38.555Z,100823.50
2023-02-23T17:53:06.469Z,100816.53
2023-02-23T17:55:35.814Z,100813.28
2023-02-23T17:58:05.295Z,100820.81
2023-02-23T18:00:38.140Z,100817.34
2023-02-23T18:03:07.040Z,100815.59
2023-02-23T18:05:36.510Z,100804.63
2023-02-23T18:08:03.752Z,100801.69
2023-02-23T18:10:36.609Z,100807.84
2023-02-23T18:13:05.783Z,100820.22
2023-02-23T18:15:34.012Z,100811.44
2023-02-23T18:18:01.479Z,100802.44
2023-02-23T18:20:29.475Z,100793.06
2023-02-23T18:22:56.497Z,100804.47
2023-02-23T18:25:27.171Z,100795.81
2023-02-23T18:28:00.084Z,100801.88
2023-02-23T18:30:27.438Z,100802.16
2023-02-23T18:32:57.917Z,100806.91
2023-02-23T18:35:28.974Z,100798.03
2023-02-23T18:40:38.579Z,100807.44
2023-02-23T18:43:18.747Z,100815.91
2023-02-23T18:45:54.447Z,100820.16
2023-02-23T18:48:48.605Z,100807.97
2023-02-23T18:51:30.037Z,100820.44
2023-02-23T19:00:59.401Z,100810.28
2023-02-23T19:03:28.619Z,100813.25
2023-02-23T19:05:56.848Z,100806.88
2023-02-23T19:08:26.448Z,100797.88
2023-02-23T19:10:54.104Z,100800.25
2023-02-23T19:13:22.389Z,100803.09
2023-02-23T19:15:53.860Z,100796.69
2023-02-23T19:18:21.622Z,100804.47
2023-02-23T19:20:55.723Z,100787.25
2023-02-23T19:23:26.119Z,100787.47
2023-02-23T19:25:54.266Z,100790.34
2023-02-23T19:28:22.420Z,100778.22
2023-02-23T19:30:49.478Z,100774.31
2023-02-23T19:33:17.943Z,100788.31
2023-02-23T19:35:50.272Z,100786.63
2023-02-23T19:38:17.403Z,100787.25
2023-02-23T19:40:44.535Z,100789.84
2023-02-23T19:43:14.735Z,100793.91
2023-02-23T19:45:46.301Z,100788.25
2023-02-23T19:48:16.094Z,100789.84
2023-02-23T19:50:48.266Z,100784.59
2023-02-23T19:53:18.833Z,100790.38
2023-02-23T19:55:45.843Z,100800.19
2023-02-23T19:58:13.267Z,100792.97
2023-02-23T20:00:45.414Z,100795.59
2023-02-23T20:03:20.375Z,100799.03
2023-02-23T20:05:48.644Z,100783.72
2023-02-23T20:08:19.633Z,100802.38
2023-02-23T20:10:46.399Z,100798.16
2023-02-23T20:13:13.026Z,100805.19
2023-02-23T20:15:39.691Z,100800.56
2023-02-23T20:18:07.423Z,100799.81
2023-02-23T20:20:35.918Z,100806.34
2023-02-23T20:23:02.583Z,100816.44
2023-02-23T20:25:29.213Z,100815.44
2023-02-23T20:27:55.894Z,100811.03
2023-02-23T20:30:22.579Z,100811.03
2023-02-23T20:32:49.436Z,100814.03
2023-02-23T20:35:18.094Z,100821.31
2023-02-23T20:37:45.012Z,100820.16
2023-02-23T20:40:18.597Z,100811.53
2023-02-23T20:42:47.999Z,100807.88
2023-02-23T20:45:17.332Z,100809.13
2023-02-23T20:47:46.130Z,100810.84
2023-02-23T20:50:14.458Z,100801.56
2023-02-23T20:52:41.901Z,100805.88
2023-02-23T20:55:09.489Z,100798.31
2023-02-23T20:57:36.523Z,100787.50
2023-02-23T21:00:10.366Z,100794.25
2023-02-23T21:02:38.650Z,100793.91
2023-02-23T21:05:05.546Z,100797.66
2023-02-23T21:07:32.108Z,100791.28
2023-02-23T21:10:01.921Z,100791.06
2023-02-23T21:12:28.589Z,100794.03
2023-02-23T21:14:55.210Z,100789.84
2023-02-23T21:17:22.015Z,100789.72
2023-02-23T21:19:48.605Z,100794.25
2023-02-23T21:22:16.506Z,100776.59
2023-02-23T21:24:44.286Z,100779.88
2023-02-23T21:27:13.145Z,100781.75
2023-02-23T21:29:40.320Z,100776.31
2023-02-23T21:32:10.456Z,100780.09
2023-02-23T21:34:37.058Z,100778.22
2023-02-23T21:37:03.728Z,100770.78
2023-02-23T21:39:30.286Z,100764.91
2023-02-23T21:41:57.261Z,100770.03
2023-02-23T21:44:24.380Z,100762.75
2023-02-23T21:46:51.802Z,100765.19
2023-02-23T21:49:19.250Z,100767.69
2023-02-23T21:51:45.872Z,100765.19
2023-02-23T21:54:12.599Z,100766.81
2023-02-23T21:56:39.306Z,100757.81
2023-02-23T21:59:08.256Z,100767.78
2023-02-23T22:01:37.819Z,100772.22
2023-02-23T22:04:06.915Z,100765.16
2023-02-23T22:06:40.013Z,100764.25
2023-02-23T22:09:11.111Z,100759.84
2023-02-23T22:11:38.755Z,100755.22
2023-02-23T22:14:10.306Z,100749.16
2023-02-23T22:16:39.904Z,100745.97
2023-02-23T22:19:06.904Z,100751.38
2023-02-23T22:21:36.009Z,100745.06
2023-02-23T22:24:06.393Z,100745.97
2023-02-23T22:26:34.604Z,100750.00
2023-02-23T22:29:01.436Z,100739.91
2023-02-23T22:31:28.600Z,100743.34
2023-02-23T22:33:55.235Z,100745.91
2023-02-23T22:36:21.989Z,100743.63
2023-02-23T22:38:48.886Z,100736.44
2023-02-23T22:41:15.810Z,100742.47
2023-02-23T22:43:46.650Z,100734.06
2023-02-23T22:46:14.704Z,100731.06
2023-02-23T22:48:45.081Z,100723.13
2023-02-23T22:51:13.209Z,100724.88
2023-02-23T22:53:39.857Z,100721.13
2023-02-23T22:56:07.135Z,100719.69
2023-02-23T22:58:33.758Z,100701.31
2023-02-23T23:01:06.590Z,100716.34
2023-02-23T23:03:45.928Z,100703.78
2023-02-23T23:06:22.305Z,100705.56
2023-02-23T23:08:51.849Z,100710.06
2023-02-23T23:11:26.031Z,100710.31
2023-02-23T23:13:57.689Z,100712.31
2023-02-23T23:16:32.050Z,100711.56
2023-02-23T23:19:07.988Z,100703.47
2023-02-23T23:21:35.544Z,100708.59
2023-02-23T23:24:06.077Z,100710.56
2023-02-23T23:26:36.832Z,100701.63
2023-02-23T23:29:05.401Z,100703.28
2023-02-23T23:31:35.058Z,100701.59
2023-02-23T23:34:04.546Z,100691.38
2023-02-23T23:36:37.609Z,100694.47
2023-02-23T23:39:04.721Z,100686.34
2023-02-23T23:41:38.012Z,100693.91
2023-02-23T23:44:05.507Z,100692.56
2023-02-23T23:46:37.891Z,100692.50
2023-02-23T23:49:11.223Z,100685.97
2023-02-23T23:51:39.719Z,100687.19
2023-02-23T23:54:08.123Z,100688.28
2023-02-23T23:56:37.429Z,100687.03
2023-02-23T23:59:10.869Z,100678.19
